Time;durP1;ratioP1;P1;durP2;ratioP2;P2;SDS_P1;SDS_P2;PMS_P1;PMS_P2;Temp;Humidity;BMP_temperature;BMP_pressure;BME280_temperature;BME280_humidity;BME280_pressure;Samples;Min_cycle;Max_cycle;Signal;HPM_P1;HPM_P2
2022/08/20 00:01:08;;;;;;;7.82;7.20;;;;;;;19.67;100.00;100948.13;5969875;23;20043;-73
2022/08/20 00:03:39;;;;;;;6.20;5.80;;;;;;;19.99;100.00;101000.47;5946953;24;20004;-73
2022/08/20 00:06:19;;;;;;;7.57;7.07;;;;;;;20.03;100.00;101015.19;5974470;23;20024;-73
2022/08/20 00:08:46;;;;;;;6.38;5.97;;;;;;;20.02;100.00;101018.81;6010661;23;20026;-73
2022/08/20 00:11:17;;;;;;;7.25;6.85;;;;;;;20.35;100.00;101078.13;6008885;23;20193;-73
2022/08/20 00:13:55;;;;;;;6.77;6.27;;;;;;;19.93;100.00;101015.16;6016395;23;20101;-73
2022/08/20 00:16:24;;;;;;;6.32;5.93;;;;;;;20.20;100.00;101075.00;6009603;23;20018;-73
2022/08/20 00:18:52;;;;;;;6.30;5.97;;;;;;;19.98;100.00;101066.19;6009472;23;20087;-73
2022/08/20 00:21:20;;;;;;;7.15;6.65;;;;;;;19.79;100.00;101042.13;5978200;23;20410;-73
2022/08/20 00:23:49;;;;;;;6.70;6.30;;;;;;;19.61;100.00;101012.56;5998483;23;20027;-73
2022/08/20 00:26:17;;;;;;;7.40;6.90;;;;;;;19.45;100.00;101003.22;6012429;18;20007;-74
2022/08/20 00:28:44;;;;;;;6.75;6.15;;;;;;;19.55;100.00;101021.91;6055440;23;20014;-73
2022/08/20 00:31:13;;;;;;;7.60;7.20;;;;;;;19.52;100.00;101028.34;6085098;23;20323;-73
2022/08/20 00:33:40;;;;;;;8.02;7.35;;;;;;;19.52;100.00;101043.44;6059679;23;20213;-73
2022/08/20 00:36:09;;;;;;;8.25;7.75;;;;;;;19.73;100.00;101088.78;6029129;23;20343;-73
2022/08/20 00:38:38;;;;;;;6.72;6.18;;;;;;;19.61;100.00;101077.31;6001644;23;20211;-72
2022/08/20 00:41:08;;;;;;;7.07;6.68;;;;;;;19.59;100.00;101075.75;6027173;23;20042;-74
2022/08/20 00:44:03;;;;;;;7.95;6.63;;;;;;;19.54;100.00;101070.78;6035671;23;20035;-73
2022/08/20 00:46:32;;;;;;;6.10;5.80;;;;;;;19.01;100.00;100991.00;5990640;23;20109;-73
2022/08/20 00:49:06;;;;;;;6.35;5.78;;;;;;;18.76;100.00;100968.19;6056493;23;20406;-73
2022/08/20 00:52:07;;;;;;;7.25;6.65;;;;;;;19.45;100.00;101069.75;6007074;23;20282;-72
2022/08/20 00:58:18;;;;;;;6.72;6.20;;;;;;;19.38;100.00;101052.59;5935848;23;20010;-72
2022/08/20 01:00:46;;;;;;;6.70;6.30;;;;;;;19.36;100.00;101059.03;6031372;23;20077;-73
2022/08/20 01:03:16;;;;;;;6.80;6.40;;;;;;;18.97;100.00;100990.41;6049426;23;20042;-73
2022/08/20 01:05:45;;;;;;;6.20;5.90;;;;;;;19.23;100.00;101025.47;6005437;23;20037;-73
2022/08/20 01:08:13;;;;;;;7.55;6.97;;;;;;;19.34;100.00;101037.88;6017515;23;20039;-73
2022/08/20 01:10:43;;;;;;;6.28;5.93;;;;;;;19.16;100.00;101013.63;6026405;23;20097;-73
2022/08/20 01:13:13;;;;;;;7.25;6.75;;;;;;;19.08;100.00;101010.78;6011248;23;20081;-73
2022/08/20 01:15:42;;;;;;;6.25;5.85;;;;;;;19.17;100.00;101027.81;6051259;23;20030;-74
2022/08/20 01:18:16;;;;;;;7.43;6.82;;;;;;;19.27;100.00;101048.19;5988738;23;20516;-73
2022/08/20 01:20:51;;;;;;;6.78;6.28;;;;;;;19.27;100.00;101050.00;6056335;23;20186;-73
2022/08/20 01:23:27;;;;;;;6.88;6.38;;;;;;;19.24;100.00;101053.75;6030932;23;20183;-73
2022/08/20 01:26:17;;;;;;;6.75;6.25;;;;;;;19.22;100.00;101057.50;6035803;23;20086;-73
2022/08/20 01:28:51;;;;;;;6.03;5.72;;;;;;;19.15;100.00;101056.34;6039935;23;20010;-73
2022/08/20 01:31:24;;;;;;;6.75;6.35;;;;;;;18.89;100.00;101020.28;6041092;23;20372;-73
2022/08/20 01:33:53;;;;;;;6.70;6.30;;;;;;;19.15;100.00;101062.50;6030062;23;20029;-73
2022/08/20 01:36:26;;;;;;;7.13;6.43;;;;;;;18.93;100.00;101023.53;6047961;23;20404;-73
2022/08/20 01:38:52;;;;;;;6.63;6.13;;;;;;;18.43;100.00;100944.25;5975229;23;20101;-73
2022/08/20 01:41:56;;;;;;;6.82;6.43;;;;;;;19.09;100.00;101053.22;6050728;23;20031;-73
2022/08/20 01:44:31;;;;;;;6.53;6.13;;;;;;;18.40;100.00;100938.34;6017208;23;20253;-73
2022/08/20 01:47:21;;;;;;;6.53;6.13;;;;;;;19.04;100.00;101051.91;6027141;23;20046;-74
2022/08/20 01:50:00;;;;;;;6.10;5.80;;;;;;;19.03;100.00;101063.53;6027436;23;20081;-73
2022/08/20 01:52:56;;;;;;;6.18;5.78;;;;;;;19.01;100.00;101050.34;6049679;23;20022;-73
2022/08/20 01:55:23;;;;;;;6.70;6.30;;;;;;;17.93;100.00;100888.09;5995885;23;20027;-74
2022/08/20 01:57:49;;;;;;;6.13;5.75;;;;;;;18.94;100.00;101049.16;6032174;23;20379;-74
2022/08/20 02:00:19;;;;;;;7.90;7.40;;;;;;;18.88;100.00;101058.50;6051147;23;20549;-74
2022/08/20 02:02:48;;;;;;;6.05;5.65;;;;;;;18.65;100.00;101028.41;6021355;23;20456;-73
2022/08/20 02:05:14;;;;;;;6.40;6.10;;;;;;;18.38;100.00;100980.16;6032535;23;20021;-73
2022/08/20 02:07:41;;;;;;;6.47;5.97;;;;;;;18.84;100.00;101057.06;6020784;23;20014;-74
2022/08/20 02:10:17;;;;;;;6.90;6.50;;;;;;;18.85;100.00;101050.75;6007293;23;20094;-73
2022/08/20 02:12:44;;;;;;;5.88;5.47;;;;;;;18.80;100.00;101047.63;6026562;23;20150;-73
2022/08/20 02:15:11;;;;;;;7.22;6.82;;;;;;;18.53;100.00;101005.50;6029584;23;20018;-72
2022/08/20 02:17:39;;;;;;;6.72;6.10;;;;;;;18.22;100.00;100960.13;6056261;23;20144;-73
2022/08/20 02:20:10;;;;;;;7.53;7.03;;;;;;;18.50;100.00;101003.06;5970572;23;20103;-73
2022/08/20 02:22:37;;;;;;;6.10;5.70;;;;;;;18.75;100.00;101041.81;6042702;23;20086;-73
2022/08/20 02:25:07;;;;;;;6.95;6.40;;;;;;;18.78;100.00;101038.88;6029718;23;20404;-74
2022/08/20 02:27:35;;;;;;;6.40;6.00;;;;;;;18.76;100.00;101043.47;6036717;23;20568;-73
2022/08/20 02:30:10;;;;;;;6.32;5.93;;;;;;;18.77;100.00;101039.03;6055271;23;20093;-73
2022/08/20 02:32:47;;;;;;;6.15;5.85;;;;;;;18.66;100.00;101015.97;6038863;23;20025;-73
2022/08/20 02:35:14;;;;;;;7.10;6.68;;;;;;;18.49;100.00;100998.72;6050628;23;20163;-72
2022/08/20 02:37:43;;;;;;;5.70;5.30;;;;;;;18.51;100.00;100991.47;5999027;23;20085;-73
2022/08/20 02:40:13;;;;;;;6.95;6.50;;;;;;;18.79;100.00;101032.66;6034124;23;20030;-73
2022/08/20 02:42:41;;;;;;;5.88;5.57;;;;;;;18.53;100.00;100989.53;6008308;23;20016;-73
2022/08/20 02:45:10;;;;;;;6.35;6.05;;;;;;;18.83;100.00;101046.53;6027258;23;20085;-73
2022/08/20 02:47:45;;;;;;;5.70;5.40;;;;;;;18.61;100.00;101013.69;6051529;23;20093;-73
2022/08/20 02:50:16;;;;;;;6.55;6.22;;;;;;;18.69;100.00;101013.06;6029748;23;20087;-73
2022/08/20 02:52:43;;;;;;;5.43;5.13;;;;;;;18.87;100.00;101040.00;6015102;23;20010;-73
2022/08/20 02:55:18;;;;;;;7.55;6.95;;;;;;;18.33;100.00;100944.16;6033634;23;20037;-73
2022/08/20 02:58:00;;;;;;;6.55;6.03;;;;;;;18.78;100.00;101027.41;6044307;23;20022;-73
2022/08/20 03:00:30;;;;;;;6.28;5.90;;;;;;;18.76;100.00;101035.50;6012999;23;20140;-73
2022/08/20 03:03:04;;;;;;;6.50;6.15;;;;;;;18.59;100.00;101007.66;6031404;23;20018;-73
2022/08/20 03:05:31;;;;;;;6.15;5.75;;;;;;;18.72;100.00;101034.06;6036423;23;20270;-73
2022/08/20 03:08:01;;;;;;;6.03;5.72;;;;;;;18.70;100.00;101028.91;6049602;23;20101;-73
2022/08/20 03:10:32;;;;;;;6.13;5.72;;;;;;;18.21;100.00;100961.09;6029448;23;20023;-73
2022/08/20 03:13:09;;;;;;;6.20;5.80;;;;;;;18.65;100.00;101023.09;6033201;23;20162;-73
2022/08/20 03:15:42;;;;;;;6.05;5.65;;;;;;;17.94;100.00;100901.25;6034051;23;20030;-73
2022/08/20 03:18:12;;;;;;;6.85;6.45;;;;;;;17.85;100.00;100894.03;6021325;23;20026;-73
2022/08/20 03:20:40;;;;;;;6.22;5.80;;;;;;;18.59;100.00;101022.75;6036040;23;20127;-72
2022/08/20 03:23:07;;;;;;;6.65;6.30;;;;;;;18.60;100.00;101019.97;6000125;23;20639;-72
2022/08/20 03:25:34;;;;;;;6.20;5.90;;;;;;;18.62;100.00;101014.53;6057685;23;20040;-72
2022/08/20 03:28:01;;;;;;;6.22;5.90;;;;;;;18.08;100.00;100931.16;6045178;23;20014;-73
2022/08/20 03:30:29;;;;;;;5.78;5.47;;;;;;;18.66;100.00;101014.16;6061008;23;20057;-72
2022/08/20 03:32:57;;;;;;;5.97;5.60;;;;;;;18.67;100.00;101021.16;5991279;23;20022;-72
2022/08/20 03:35:25;;;;;;;6.00;5.50;;;;;;;18.68;100.00;101006.03;6053937;23;20405;-76
2022/08/20 03:37:52;;;;;;;6.30;5.80;;;;;;;18.01;100.00;100898.94;6005197;23;20103;-73
2022/08/20 03:40:24;;;;;;;6.82;6.32;;;;;;;18.26;100.00;100940.31;6066482;23;20634;-73
2022/08/20 03:42:51;;;;;;;10.57;5.97;;;;;;;17.97;100.00;100904.63;6003058;23;20015;-74
2022/08/20 03:45:21;;;;;;;6.90;6.50;;;;;;;17.73;100.00;100836.56;6061197;23;20014;-74
2022/08/20 03:47:49;;;;;;;6.55;5.97;;;;;;;18.42;100.00;100957.66;6030909;23;20023;-75
2022/08/20 03:50:19;;;;;;;6.90;6.40;;;;;;;18.15;100.00;100911.13;6050671;23;20089;-74
2022/08/20 03:52:51;;;;;;;6.70;6.20;;;;;;;18.71;100.00;101003.97;6032824;23;20023;-74
2022/08/20 03:55:19;;;;;;;6.88;6.45;;;;;;;18.58;100.00;100973.22;6028522;23;20027;-73
2022/08/20 03:57:53;;;;;;;6.30;5.90;;;;;;;18.74;100.00;100993.13;6003423;23;20082;-74
2022/08/20 04:00:25;;;;;;;6.43;6.00;;;;;;;18.61;100.00;100999.56;6034306;23;20023;-73
2022/08/20 04:02:52;;;;;;;7.47;6.93;;;;;;;18.67;100.00;101001.72;6025502;23;20090;-73
2022/08/20 04:05:19;;;;;;;7.00;6.60;;;;;;;18.45;100.00;100962.75;6026935;23;20019;-73
2022/08/20 04:07:46;;;;;;;7.30;6.80;;;;;;;18.17;100.00;100922.47;6034538;23;20040;-74
2022/08/20 04:10:13;;;;;;;8.45;7.80;;;;;;;18.29;100.00;100945.38;6027307;23;20033;-72
2022/08/20 04:12:39;;;;;;;7.07;6.50;;;;;;;17.77;100.00;100867.22;5998372;23;20015;-74
2022/08/20 04:15:19;;;;;;;7.88;7.28;;;;;;;18.66;100.00;101000.00;6023354;23;20050;-73
2022/08/20 04:17:51;;;;;;;6.30;5.90;;;;;;;18.61;100.00;101010.19;6030523;23;20420;-73
2022/08/20 04:20:22;;;;;;;7.20;6.70;;;;;;;18.62;100.00;101010.06;6034162;23;20265;-73
2022/08/20 04:22:56;;;;;;;7.07;6.57;;;;;;;18.65;100.00;101007.16;6004693;23;20091;-73
2022/08/20 04:25:27;;;;;;;6.93;6.43;;;;;;;18.12;100.00;100949.41;6021566;23;20026;-74
2022/08/20 04:27:56;;;;;;;6.90;6.45;;;;;;;17.69;100.00;100848.41;6042618;23;20015;-73
2022/08/20 04:30:31;;;;;;;6.88;6.45;;;;;;;18.68;100.00;101006.91;6056728;23;20360;-75
2022/08/20 04:33:01;;;;;;;6.97;6.47;;;;;;;17.03;100.00;100744.84;6017385;23;20023;-74
2022/08/20 04:35:29;;;;;;;6.38;5.93;;;;;;;18.68;100.00;101006.91;6054918;23;20041;-74
2022/08/20 04:38:08;;;;;;;6.57;6.07;;;;;;;18.72;100.00;101018.97;5979155;23;20434;-74
2022/08/20 04:40:56;;;;;;;7.45;6.95;;;;;;;18.31;100.00;100946.09;6054369;23;20060;-75
2022/08/20 04:43:27;;;;;;;7.20;6.53;;;;;;;18.34;100.00;100961.81;5992791;23;20481;-74
2022/08/20 04:45:56;;;;;;;7.70;6.95;;;;;;;17.85;100.00;100870.13;6057377;23;20014;-74
2022/08/20 04:48:28;;;;;;;9.32;7.43;;;;;;;18.40;100.00;100956.94;6020162;23;20023;-74
2022/08/20 04:50:56;;;;;;;7.22;6.68;;;;;;;18.83;100.00;101026.09;6024590;23;20025;-74
2022/08/20 04:53:26;;;;;;;8.30;7.60;;;;;;;18.86;100.00;101022.34;6044739;23;20177;-74
2022/08/20 04:55:55;;;;;;;8.80;7.97;;;;;;;18.82;100.00;101024.44;6002004;23;20015;-75
2022/08/20 04:58:33;;;;;;;9.20;7.88;;;;;;;18.86;100.00;101038.28;6024331;23;20046;-74
2022/08/20 05:01:04;;;;;;;9.23;8.40;;;;;;;18.88;100.00;101050.53;6031597;23;20082;-75
2022/08/20 05:03:31;;;;;;;10.63;9.38;;;;;;;18.87;100.00;101040.84;6037652;23;20227;-74
2022/08/20 05:06:02;;;;;;;10.95;9.57;;;;;;;18.88;100.00;101031.91;6025467;23;20539;-75
2022/08/20 05:08:29;;;;;;;13.88;9.55;;;;;;;18.89;100.00;101030.09;6026252;23;20038;-75
2022/08/20 05:10:56;;;;;;;12.27;9.85;;;;;;;18.20;100.00;100916.06;6020065;23;20030;-75
2022/08/20 05:13:51;;;;;;;10.23;9.05;;;;;;;18.88;100.00;101025.72;6032786;23;20058;-75
2022/08/20 05:16:19;;;;;;;11.55;10.32;;;;;;;18.58;100.00;101005.94;6047914;23;20335;-75
2022/08/20 05:18:45;;;;;;;12.07;9.65;;;;;;;18.89;100.00;101032.75;5997165;23;20103;-75
2022/08/20 05:21:18;;;;;;;9.93;9.02;;;;;;;18.92;100.00;101030.69;6014153;23;21000;-74
2022/08/20 05:23:44;;;;;;;12.82;9.38;;;;;;;18.77;100.00;100991.16;6054507;23;20065;-75
2022/08/20 05:26:11;;;;;;;11.23;10.15;;;;;;;18.58;100.00;100973.22;6008652;23;20089;-75
2022/08/20 05:28:39;;;;;;;10.18;9.27;;;;;;;18.92;100.00;101032.47;6051155;23;20021;-74
2022/08/20 05:31:23;;;;;;;9.25;8.35;;;;;;;18.51;100.00;100962.25;6006498;23;20414;-74
2022/08/20 05:34:08;;;;;;;11.50;9.38;;;;;;;18.93;100.00;101026.19;6051969;23;20045;-75
2022/08/20 05:36:44;;;;;;;9.93;8.77;;;;;;;18.39;100.00;100936.66;6015196;23;20015;-75
2022/08/20 05:39:13;;;;;;;12.95;11.10;;;;;;;18.21;100.00;100904.47;6022643;23;20030;-74
2022/08/20 05:41:40;;;;;;;9.98;9.02;;;;;;;18.95;100.00;101036.72;6024926;23;20467;-74
2022/08/20 05:44:12;;;;;;;15.43;11.93;;;;;;;19.18;100.00;101037.47;6054504;23;20018;-72
2022/08/20 05:46:42;;;;;;;15.88;11.43;;;;;;;19.18;100.00;101037.47;6021861;23;20033;-75
2022/08/20 05:49:15;;;;;;;12.50;11.18;;;;;;;19.28;100.00;101036.59;6013242;23;20089;-74
2022/08/20 05:51:42;;;;;;;15.50;10.63;;;;;;;18.68;100.00;100952.88;6032176;23;20031;-74
2022/08/20 05:54:09;;;;;;;14.00;12.55;;;;;;;19.31;100.00;101043.47;5994013;23;20010;-74
2022/08/20 05:56:36;;;;;;;13.73;9.93;;;;;;;19.26;100.00;101041.19;6030713;23;20022;-74
2022/08/20 05:59:07;;;;;;;12.32;11.05;;;;;;;18.92;100.00;100987.25;5995443;23;20034;-74
2022/08/20 06:01:36;;;;;;;13.68;10.38;;;;;;;19.28;100.00;101060.53;6042052;23;20023;-74
2022/08/20 06:06:51;;;;;;;16.33;10.63;;;;;;;19.20;100.00;101046.16;6044785;23;20654;-73
2022/08/20 06:09:19;;;;;;;13.63;10.80;;;;;;;19.20;100.00;101049.66;6016785;23;20037;-74
2022/08/20 06:12:02;;;;;;;11.23;10.05;;;;;;;18.96;100.00;100983.38;6028262;23;20608;-74
2022/08/20 06:14:31;;;;;;;13.48;9.85;;;;;;;19.20;100.00;101016.88;6017701;23;20027;-74
2022/08/20 06:17:08;;;;;;;15.25;10.23;;;;;;;19.50;100.00;101048.06;6033628;23;20021;-73
2022/08/20 06:19:36;;;;;;;8.57;7.68;;;;;;;19.68;100.00;101049.16;6053355;23;20447;-74
2022/08/20 06:22:04;;;;;;;10.18;9.27;;;;;;;19.08;100.00;100953.13;5992094;23;20016;-73
2022/08/20 06:24:46;;;;;;;11.05;9.63;;;;;;;19.67;100.00;101033.34;6053599;23;20515;-74
2022/08/20 06:27:14;;;;;;;12.13;11.02;;;;;;;19.82;100.00;101055.16;6029117;23;20042;-73
2022/08/20 06:29:44;;;;;;;10.88;9.75;;;;;;;19.81;100.00;101053.50;6046799;23;20089;-73
2022/08/20 06:32:10;;;;;;;12.32;10.65;;;;;;;19.76;100.00;101051.22;6029808;23;20038;-74
2022/08/20 06:34:40;;;;;;;10.80;9.35;;;;;;;19.28;100.00;100963.88;6026103;23;20079;-73
2022/08/20 06:37:22;;;;;;;11.82;10.75;;;;;;;19.87;100.00;101053.81;6020844;23;20486;-74
2022/08/20 06:40:02;;;;;;;10.55;9.52;;;;;;;19.49;100.00;100985.16;6010733;23;20053;-73
2022/08/20 06:42:29;;;;;;;10.48;8.70;;;;;;;20.02;100.00;101066.78;6018617;23;20448;-73
2022/08/20 06:44:58;;;;;;;10.30;8.90;;;;;;;19.53;100.00;100982.09;6022639;23;20647;-73
2022/08/20 06:47:24;;;;;;;10.73;9.63;;;;;;;19.78;100.00;101011.13;6020409;23;20053;-74
2022/08/20 06:49:51;;;;;;;17.65;8.68;;;;;;;19.24;100.00;100910.06;6025312;23;20105;-73
2022/08/20 06:52:18;;;;;;;11.73;10.07;;;;;;;20.35;100.00;101070.13;5961101;23;20026;-73
2022/08/20 06:54:55;;;;;;;15.15;9.63;;;;;;;19.97;100.00;101008.56;6051145;23;20088;-73
2022/08/20 06:57:21;;;;;;;11.00;8.45;;;;;;;20.27;100.00;101069.00;5990547;23;20030;-73
2022/08/20 06:59:48;;;;;;;16.10;8.60;;;;;;;19.82;100.00;101031.19;6052772;23;20026;-74
2022/08/20 07:02:19;;;;;;;11.60;9.43;;;;;;;19.77;100.00;101060.91;5990489;23;20054;-73
2022/08/20 07:04:54;;;;;;;10.38;9.23;;;;;;;19.95;100.00;101084.28;6054895;23;20104;-74
2022/08/20 07:07:22;;;;;;;10.52;8.27;;;;;;;19.31;100.00;101017.69;5978410;23;20015;-73
2022/08/20 07:09:50;;;;;;;9.02;8.13;;;;;;;19.35;100.00;101034.25;6020499;23;20449;-74
2022/08/20 07:12:16;;;;;;;12.20;11.05;;;;;;;19.48;100.00;101048.22;6036005;23;20492;-73
2022/08/20 07:14:43;;;;;;;8.50;7.80;;;;;;;19.36;100.00;101049.22;6020712;23;20082;-74
2022/08/20 07:17:10;;;;;;;11.23;10.23;;;;;;;19.50;100.00;101085.34;6032723;23;20357;-74
2022/08/20 07:19:37;;;;;;;8.65;7.80;;;;;;;19.51;100.00;101073.72;5992690;23;20038;-74
2022/08/20 07:22:05;;;;;;;9.73;8.82;;;;;;;19.91;100.00;101113.84;6033626;23;20116;-74
2022/08/20 07:24:31;;;;;;;9.90;8.55;;;;;;;20.03;100.00;101065.81;6022872;23;20018;-74
2022/08/20 07:27:01;;;;;;;10.43;9.43;;;;;;;20.16;100.00;101069.09;6061240;23;20105;-75
2022/08/20 07:32:33;;;;;;;8.88;8.13;;;;;;;20.09;100.00;101022.66;6007014;23;20460;-75
2022/08/20 07:35:10;;;;;;;14.27;9.27;;;;;;;20.76;100.00;101121.69;6032642;23;20443;-74
2022/08/20 07:37:40;;;;;;;9.13;8.32;;;;;;;20.70;100.00;101118.56;6039831;23;20021;-75
2022/08/20 07:40:10;;;;;;;9.73;8.82;;;;;;;20.09;100.00;101046.63;5978978;23;20537;-75
2022/08/20 07:42:38;;;;;;;9.20;8.30;;;;;;;20.29;100.00;101117.69;6045644;23;20018;-75
2022/08/20 07:45:12;;;;;;;10.00;9.23;;;;;;;20.22;100.00;101110.34;5983728;23;20050;-75
2022/08/20 07:47:40;;;;;;;8.50;7.25;;;;;;;20.15;100.00;101125.19;6020086;23;20031;-75
2022/08/20 07:50:12;;;;;;;10.82;9.82;;;;;;;19.93;100.00;101101.22;6021801;23;20027;-74
2022/08/20 07:52:39;;;;;;;11.95;8.32;;;;;;;19.98;100.00;101131.97;6024495;23;20051;-76
2022/08/20 07:55:09;;;;;;;10.75;9.77;;;;;;;19.84;100.00;101117.97;5990861;23;20172;-75
2022/08/20 07:57:36;;;;;;;8.38;7.68;;;;;;;20.09;100.00;101140.72;6055115;23;20477;-75
2022/08/20 08:00:04;;;;;;;13.25;9.15;;;;;;;18.84;100.00;100969.31;6002897;23;20054;-75
2022/08/20 08:02:31;;;;;;;11.50;8.30;;;;;;;19.75;100.00;101124.09;6052336;23;20035;-75
2022/08/20 08:04:57;;;;;;;9.50;8.65;;;;;;;19.77;100.00;101148.78;5999867;23;20467;-75
2022/08/20 08:07:27;;;;;;;11.75;8.75;;;;;;;19.78;100.00;101150.47;6044551;23;20163;-75
2022/08/20 08:09:55;;;;;;;9.65;8.77;;;;;;;19.55;100.00;101132.88;6005262;23;20461;-75
2022/08/20 08:12:24;;;;;;;10.38;9.48;;;;;;;19.71;100.00;101151.97;6043291;23;20057;-75
2022/08/20 08:14:51;;;;;;;8.98;8.02;;;;;;;19.75;100.00;101140.09;5992830;23;20016;-74
2022/08/20 08:17:18;;;;;;;10.35;9.35;;;;;;;18.89;100.00;100996.34;6024831;23;20526;-74
2022/08/20 08:19:49;;;;;;;10.68;8.88;;;;;;;19.28;100.00;101096.91;5980928;23;20214;-74
2022/08/20 08:22:17;;;;;;;10.40;9.60;;;;;;;19.60;100.00;101151.97;6055056;23;20104;-74
2022/08/20 08:24:46;;;;;;;9.55;8.57;;;;;;;19.25;100.00;101082.06;6001366;23;20402;-75
2022/08/20 08:27:22;;;;;;;9.82;8.73;;;;;;;20.08;100.00;101159.50;6021252;23;20053;-75
2022/08/20 08:29:56;;;;;;;10.07;8.15;;;;;;;19.83;100.00;101087.00;6046605;23;20210;-74
2022/08/20 08:32:23;;;;;;;12.70;8.00;;;;;;;20.21;100.00;101141.50;6020510;23;20188;-74
2022/08/20 08:34:51;;;;;;;8.48;7.78;;;;;;;20.14;100.00;101100.34;6047312;23;20030;-74
2022/08/20 08:37:18;;;;;;;9.38;8.45;;;;;;;20.41;100.00;101118.44;5987870;23;20592;-76
2022/08/20 08:39:44;;;;;;;8.90;8.05;;;;;;;20.45;100.00;101106.53;6054460;23;20593;-75
2022/08/20 08:42:32;;;;;;;11.88;8.27;;;;;;;20.70;100.00;101174.56;5991295;23;20168;-74
2022/08/20 08:45:09;;;;;;;10.80;9.70;;;;;;;20.19;100.00;101091.97;6051290;23;20010;-74
2022/08/20 08:47:37;;;;;;;11.05;8.77;;;;;;;20.59;100.00;101161.34;5988166;23;20032;-74
2022/08/20 08:50:09;;;;;;;9.70;8.82;;;;;;;20.67;100.00;101161.53;6014131;23;20033;-75
2022/08/20 08:52:41;;;;;;;8.90;8.00;;;;;;;20.64;100.00;101128.94;6023441;23;20021;-75
2022/08/20 08:55:14;;;;;;;9.40;8.40;;;;;;;20.68;100.00;101093.84;6017641;23;20570;-74
2022/08/20 08:57:41;;;;;;;11.48;8.15;;;;;;;20.64;100.00;101097.78;5995745;23;20014;-75
2022/08/20 09:00:15;;;;;;;10.63;8.55;;;;;;;21.15;100.00;101156.44;6020623;23;20077;-75
2022/08/20 09:02:59;;;;;;;8.10;7.40;;;;;;;21.47;98.67;101178.47;6021572;23;20023;-75
2022/08/20 09:05:52;;;;;;;8.43;7.72;;;;;;;21.49;98.48;101181.84;6051716;23;20026;-75
2022/08/20 09:08:24;;;;;;;9.40;7.50;;;;;;;21.56;98.84;101178.59;5998265;23;20281;-75
2022/08/20 09:11:03;;;;;;;8.20;7.50;;;;;;;21.47;97.91;101191.81;6049110;23;20033;-75
2022/08/20 09:13:33;;;;;;;7.53;6.93;;;;;;;20.63;98.40;101026.78;5993735;23;20047;-75
2022/08/20 09:15:59;;;;;;;8.50;7.80;;;;;;;21.32;97.29;101164.63;6010718;23;20015;-75
2022/08/20 09:18:29;;;;;;;7.85;7.25;;;;;;;21.40;98.84;101184.47;6023783;23;20030;-75
2022/08/20 09:21:00;;;;;;;9.20;8.55;;;;;;;21.60;98.82;101190.69;6028867;23;20360;-75
2022/08/20 09:23:27;;;;;;;8.95;7.82;;;;;;;20.93;95.82;101065.00;6015455;23;20511;-75
2022/08/20 09:25:53;;;;;;;8.93;8.18;;;;;;;21.40;96.39;101153.25;6045567;23;20259;-75
2022/08/20 09:28:20;;;;;;;8.45;7.70;;;;;;;21.98;96.21;101202.38;6023582;23;20027;-75
2022/08/20 09:30:46;;;;;;;8.48;7.80;;;;;;;21.51;95.12;101112.28;6024129;23;20356;-75
2022/08/20 09:33:13;;;;;;;8.93;8.13;;;;;;;21.81;94.96;101180.72;6022641;23;20102;-75
2022/08/20 09:35:39;;;;;;;8.60;7.80;;;;;;;21.80;95.73;101181.69;6022813;23;20021;-77
2022/08/20 09:38:07;;;;;;;10.38;9.52;;;;;;;21.48;97.09;101203.34;6041110;23;20026;-74
2022/08/20 09:40:33;;;;;;;8.13;7.53;;;;;;;21.22;97.09;101153.09;6003082;23;20011;-73
2022/08/20 09:43:00;;;;;;;9.38;8.45;;;;;;;21.40;96.10;101169.28;6047518;23;20039;-75
2022/08/20 09:45:26;;;;;;;7.88;7.28;;;;;;;21.26;97.71;101148.34;6020069;23;20109;-75
2022/08/20 09:47:53;;;;;;;8.70;7.90;;;;;;;20.94;96.95;101143.22;6043876;23;20040;-75
2022/08/20 09:50:22;;;;;;;8.45;7.68;;;;;;;20.43;100.00;101126.31;6016811;23;20039;-75
2022/08/20 09:52:56;;;;;;;8.60;7.78;;;;;;;20.92;100.00;101194.03;6023474;23;20038;-74
2022/08/20 09:55:36;;;;;;;8.63;7.93;;;;;;;20.79;100.00;101220.97;5991872;23;20011;-74
2022/08/20 09:58:18;;;;;;;9.75;8.95;;;;;;;20.98;100.00;101220.19;6000173;23;20022;-74
2022/08/20 10:00:45;;;;;;;8.70;7.82;;;;;;;20.86;100.00;101199.91;6023048;23;20048;-74
2022/08/20 10:03:12;;;;;;;12.15;7.55;;;;;;;20.93;100.00;101171.72;6038408;23;20089;-76
2022/08/20 10:05:39;;;;;;;8.75;7.93;;;;;;;20.83;98.76;101123.69;5979901;23;20151;-74
2022/08/20 10:08:07;;;;;;;13.65;9.23;;;;;;;20.99;96.24;101108.94;6042155;23;20039;-75
2022/08/20 10:10:34;;;;;;;8.32;7.57;;;;;;;21.95;96.67;101197.28;5987462;23;20225;-74
2022/08/20 10:13:01;;;;;;;10.32;9.43;;;;;;;22.06;94.69;101186.47;6049305;23;20085;-75
2022/08/20 10:15:30;;;;;;;7.85;7.15;;;;;;;21.83;90.57;101184.09;5991696;23;20031;-75
2022/08/20 10:17:57;;;;;;;9.38;8.57;;;;;;;20.80;92.65;101013.72;6028727;23;20538;-74
2022/08/20 10:20:24;;;;;;;8.05;7.45;;;;;;;22.03;92.89;101218.81;6014163;23;20259;-74
2022/08/20 10:22:53;;;;;;;8.05;7.45;;;;;;;22.13;91.70;101163.53;6038903;23;20053;-74
2022/08/20 10:25:21;;;;;;;9.15;7.13;;;;;;;22.38;89.80;101171.94;6019869;23;20031;-74
2022/08/20 10:27:47;;;;;;;8.85;8.00;;;;;;;22.22;90.10;101176.00;6023433;23;20030;-74
2022/08/20 10:30:18;;;;;;;8.95;7.53;;;;;;;22.20;89.92;101169.97;6060440;23;20034;-74
2022/08/20 10:32:44;;;;;;;8.07;7.35;;;;;;;22.47;89.67;101209.34;5993196;23;20421;-74
2022/08/20 10:35:11;;;;;;;9.00;8.20;;;;;;;21.98;88.70;101127.53;6045332;23;20049;-74
2022/08/20 10:37:40;;;;;;;7.70;7.20;;;;;;;22.26;89.02;101172.09;5990260;23;20460;-74
2022/08/20 10:40:07;;;;;;;9.10;8.27;;;;;;;22.45;87.37;101181.03;6044710;23;20328;-74
2022/08/20 10:42:33;;;;;;;8.02;7.35;;;;;;;22.86;87.03;101221.72;5990387;23;20388;-74
2022/08/20 10:45:08;;;;;;;10.65;9.55;;;;;;;22.65;86.43;101161.28;6043501;23;20047;-74
2022/08/20 10:47:34;;;;;;;7.90;7.20;;;;;;;22.82;84.94;101164.16;6000947;23;20027;-73
2022/08/20 10:50:03;;;;;;;9.68;8.80;;;;;;;23.22;85.24;101217.34;6066011;23;20082;-75
2022/08/20 10:52:29;;;;;;;8.48;7.78;;;;;;;22.84;86.28;101187.09;6003029;23;20031;-75
2022/08/20 10:54:56;;;;;;;10.93;8.60;;;;;;;22.76;85.24;101202.22;6009389;23;20702;-73
2022/08/20 10:57:28;;;;;;;8.60;7.93;;;;;;;22.71;85.66;101194.59;6025722;23;20493;-73
2022/08/20 10:59:57;;;;;;;11.13;10.10;;;;;;;23.16;84.83;101235.88;6055460;23;20022;-74
2022/08/20 11:02:26;;;;;;;8.87;7.97;;;;;;;22.23;84.88;101077.91;6026718;23;20102;-74
2022/08/20 11:04:54;;;;;;;9.23;8.25;;;;;;;23.25;84.92;101222.41;6055903;23;20286;-74
2022/08/20 11:07:30;;;;;;;9.13;7.75;;;;;;;23.30;84.32;101227.31;5998691;23;20027;-74
2022/08/20 11:10:17;;;;;;;10.07;8.00;;;;;;;23.41;83.75;101220.91;6048789;23;20018;-75
2022/08/20 11:12:45;;;;;;;9.00;7.95;;;;;;;23.24;83.35;101239.47;6006348;23;20054;-74
2022/08/20 11:15:12;;;;;;;9.00;8.23;;;;;;;22.79;82.60;101169.78;6048746;23;20022;-75
2022/08/20 11:17:41;;;;;;;9.88;8.25;;;;;;;22.83;83.38;101172.03;5989706;23;20031;-75
2022/08/20 11:20:10;;;;;;;9.43;8.63;;;;;;;23.25;83.58;101237.63;6041742;23;20022;-74
2022/08/20 11:22:37;;;;;;;8.73;7.70;;;;;;;23.13;83.44;101228.09;6005537;23;20496;-75
2022/08/20 11:25:05;;;;;;;13.57;8.95;;;;;;;22.70;85.55;101217.00;6029400;23;20246;-73
2022/08/20 11:27:39;;;;;;;8.82;7.88;;;;;;;23.05;86.27;101245.78;6043113;23;20057;-74
2022/08/20 11:30:08;;;;;;;10.32;8.85;;;;;;;23.39;84.35;101228.25;5998083;23;20027;-74
2022/08/20 11:32:35;;;;;;;15.60;7.68;;;;;;;23.16;80.49;101116.19;6013339;23;20496;-75
2022/08/20 11:35:04;;;;;;;10.20;9.15;;;;;;;23.81;78.85;101200.88;5991794;23;20199;-75
2022/08/20 11:37:55;;;;;;;8.20;7.50;;;;;;;24.09;77.22;101217.69;6028544;23;20175;-75
2022/08/20 11:40:26;;;;;;;8.90;8.00;;;;;;;24.26;77.59;101230.25;6054209;23;20022;-76
2022/08/20 11:42:53;;;;;;;12.18;8.48;;;;;;;23.79;78.93;101168.88;6004275;23;20097;-76